Kezdőlap
METAR-TAF:

METAR-TAF

Repülőterek :

Zsolna, Szlovákia

földrajzi szélesség: 49-14N, földrajzi hosszúság: 018-36-49E, magasság: 312 m

Jelenlegi meteorológiai megfigyelések

A jelentés 23 perccel ezelõtt készült, 18:00 UTC
Észak-északkeleti szél 4 kt, északi és keleti között változik
Hőmérséklet 6°C
Páratartalom 61%
Légköri nyomás 1012 hPa
Látótávolság 10 km, vagy több
Kevés felhő 3700 lábon

METAR: LZZI 181800Z 03004KT 350V080 9999 FEW037 06/M01 Q1012

Idő: 20:23 (18:23 UTC)

Előrejelzés

A jelentés 1 órával és 8 perccel ezelõtt készült, 17:15 UTC
Az előrejelzés 18-én 18 óra UTC és 19-én 03 óra UTC között érvényes
Északkeleti szél 6 kt
Látótávolság 10 km, vagy több
Szórványos felhőzet 3000 lábon
18-én 19 óra UTC és 18-én 21 óra UTC között fokozatosan kialakuló
Különbözõ irányokból fújó szél 2 kt

TAF: LZZI 181715Z 1818/1903 04006KT 9999 SCT030 BECMG 1819/1821 VRB02KT

Meteorológiai megfigyelések és előrejelzések több, mint 4000 repülőtéren (METAR és TAF jelentéseket).

A térképen piros és sárga pontok jelzik az elérhető meteorológiai állomásokat.

Mozgassa az egeret a pont fölött, hogy megjelenjen az állomás neve.

Azután kattintson az időjárási megfigyelések és előrejelzések megtekintéséhez.

A térkép megváltoztatása: kattintson a fekete keresztel jelölt zöld gombra ráközelítéshez, a vonallal jelölt zöld gombra távolításhoz, vagy a zöld nyilakra a szomszédos térképek eléréséhez.


METAR-TAF: